sensor_id;sensor_type;location;lat;lon;timestamp;temperature;humidity
27439;DHT22;14887;51.252;7.470;2023-06-26T00:02:17;22.30;1.00
27439;DHT22;14887;51.252;7.470;2023-06-26T00:04:43;22.30;1.00
27439;DHT22;14887;51.252;7.470;2023-06-26T00:07:10;22.20;1.00
27439;DHT22;14887;51.252;7.470;2023-06-26T00:09:35;22.10;1.00
27439;DHT22;14887;51.252;7.470;2023-06-26T00:12:01;22.10;1.00
27439;DHT22;14887;51.252;7.470;2023-06-26T00:14:27;22.00;1.00
27439;DHT22;14887;51.252;7.470;2023-06-26T00:16:52;22.00;1.00
27439;DHT22;14887;51.252;7.470;2023-06-26T00:19:18;22.00;1.00
27439;DHT22;14887;51.252;7.470;2023-06-26T00:21:44;22.00;1.00
27439;DHT22;14887;51.252;7.470;2023-06-26T00:24:17;21.90;1.00
27439;DHT22;14887;51.252;7.470;2023-06-26T00:26:47;21.90;1.00
27439;DHT22;14887;51.252;7.470;2023-06-26T00:29:13;21.90;1.00
27439;DHT22;14887;51.252;7.470;2023-06-26T00:31:38;21.80;1.00
27439;DHT22;14887;51.252;7.470;2023-06-26T00:34:05;21.80;1.00
27439;DHT22;14887;51.252;7.470;2023-06-26T00:36:31;21.80;1.00
27439;DHT22;14887;51.252;7.470;2023-06-26T00:38:58;21.80;1.00
27439;DHT22;14887;51.252;7.470;2023-06-26T00:41:23;21.80;1.00
27439;DHT22;14887;51.252;7.470;2023-06-26T00:43:49;21.70;1.00
27439;DHT22;14887;51.252;7.470;2023-06-26T00:46:15;21.70;1.00
27439;DHT22;14887;51.252;7.470;2023-06-26T00:48:43;21.70;1.00
27439;DHT22;14887;51.252;7.470;2023-06-26T00:51:09;21.60;1.00
27439;DHT22;14887;51.252;7.470;2023-06-26T00:53:35;21.60;1.00
27439;DHT22;14887;51.252;7.470;2023-06-26T00:56:02;21.60;1.00
27439;DHT22;14887;51.252;7.470;2023-06-26T00:58:28;21.60;1.00
27439;DHT22;14887;51.252;7.470;2023-06-26T01:00:54;21.50;1.00
27439;DHT22;14887;51.252;7.470;2023-06-26T01:03:22;21.40;1.40
27439;DHT22;14887;51.252;7.470;2023-06-26T01:05:50;21.40;1.00
27439;DHT22;14887;51.252;7.470;2023-06-26T01:08:18;21.40;1.00
27439;DHT22;14887;51.252;7.470;2023-06-26T01:10:44;21.40;1.00
27439;DHT22;14887;51.252;7.470;2023-06-26T01:13:10;21.40;1.00
27439;DHT22;14887;51.252;7.470;2023-06-26T01:15:36;21.40;1.00
27439;DHT22;14887;51.252;7.470;2023-06-26T01:18:02;21.40;1.00
27439;DHT22;14887;51.252;7.470;2023-06-26T01:20:35;21.40;3.30
27439;DHT22;14887;51.252;7.470;2023-06-26T01:26:19;21.30;1.00
27439;DHT22;14887;51.252;7.470;2023-06-26T01:28:45;21.30;1.00
27439;DHT22;14887;51.252;7.470;2023-06-26T01:31:12;21.30;1.00
27439;DHT22;14887;51.252;7.470;2023-06-26T01:33:40;21.20;1.00
27439;DHT22;14887;51.252;7.470;2023-06-26T01:36:06;21.20;1.00
27439;DHT22;14887;51.252;7.470;2023-06-26T01:38:32;21.20;1.00
27439;DHT22;14887;51.252;7.470;2023-06-26T01:40:58;21.20;1.00
27439;DHT22;14887;51.252;7.470;2023-06-26T01:46:52;21.10;1.00
27439;DHT22;14887;51.252;7.470;2023-06-26T01:49:47;21.10;1.00
27439;DHT22;14887;51.252;7.470;2023-06-26T01:52:28;21.10;1.00
27439;DHT22;14887;51.252;7.470;2023-06-26T01:55:09;21.00;2.40
27439;DHT22;14887;51.252;7.470;2023-06-26T01:57:38;20.90;1.50
27439;DHT22;14887;51.252;7.470;2023-06-26T02:00:04;20.90;5.00
27439;DHT22;14887;51.252;7.470;2023-06-26T02:02:31;20.90;5.80
27439;DHT22;14887;51.252;7.470;2023-06-26T02:04:57;20.90;5.90
27439;DHT22;14887;51.252;7.470;2023-06-26T02:07:22;20.90;3.20
27439;DHT22;14887;51.252;7.470;2023-06-26T02:09:48;20.80;2.90
27439;DHT22;14887;51.252;7.470;2023-06-26T02:12:13;20.80;6.40
27439;DHT22;14887;51.252;7.470;2023-06-26T02:14:39;20.70;6.80
27439;DHT22;14887;51.252;7.470;2023-06-26T02:17:05;20.70;4.70
27439;DHT22;14887;51.252;7.470;2023-06-26T02:19:30;20.80;4.50
27439;DHT22;14887;51.252;7.470;2023-06-26T02:21:56;20.80;2.90
27439;DHT22;14887;51.252;7.470;2023-06-26T02:24:22;20.80;3.60
27439;DHT22;14887;51.252;7.470;2023-06-26T02:26:47;20.70;3.10
27439;DHT22;14887;51.252;7.470;2023-06-26T02:29:14;20.70;6.10
27439;DHT22;14887;51.252;7.470;2023-06-26T02:31:40;20.60;7.30
27439;DHT22;14887;51.252;7.470;2023-06-26T02:34:06;20.70;6.80
27439;DHT22;14887;51.252;7.470;2023-06-26T02:36:32;20.60;5.20
27439;DHT22;14887;51.252;7.470;2023-06-26T02:38:57;20.60;8.10
27439;DHT22;14887;51.252;7.470;2023-06-26T02:41:23;20.60;7.00
27439;DHT22;14887;51.252;7.470;2023-06-26T02:43:49;20.60;8.40
27439;DHT22;14887;51.252;7.470;2023-06-26T02:46:14;20.50;12.20
27439;DHT22;14887;51.252;7.470;2023-06-26T02:48:40;20.50;15.70
27439;DHT22;14887;51.252;7.470;2023-06-26T02:51:06;20.50;21.30
27439;DHT22;14887;51.252;7.470;2023-06-26T02:53:32;20.50;21.50
27439;DHT22;14887;51.252;7.470;2023-06-26T02:55:58;20.40;21.10
27439;DHT22;14887;51.252;7.470;2023-06-26T02:58:23;20.40;26.90
27439;DHT22;14887;51.252;7.470;2023-06-26T03:00:49;20.40;28.60
27439;DHT22;14887;51.252;7.470;2023-06-26T03:03:14;20.40;25.80
27439;DHT22;14887;51.252;7.470;2023-06-26T03:05:40;20.40;29.90
27439;DHT22;14887;51.252;7.470;2023-06-26T03:08:05;20.40;31.20
27439;DHT22;14887;51.252;7.470;2023-06-26T03:10:31;20.30;36.00
27439;DHT22;14887;51.252;7.470;2023-06-26T03:12:57;20.40;36.60
27439;DHT22;14887;51.252;7.470;2023-06-26T03:15:22;20.40;31.50
27439;DHT22;14887;51.252;7.470;2023-06-26T03:17:48;20.40;31.30
27439;DHT22;14887;51.252;7.470;2023-06-26T03:20:13;20.40;34.00
27439;DHT22;14887;51.252;7.470;2023-06-26T03:22:39;20.40;28.90
27439;DHT22;14887;51.252;7.470;2023-06-26T03:25:04;20.50;26.20
27439;DHT22;14887;51.252;7.470;2023-06-26T03:27:30;20.50;25.70
27439;DHT22;14887;51.252;7.470;2023-06-26T03:29:56;20.50;28.70
27439;DHT22;14887;51.252;7.470;2023-06-26T03:32:21;20.40;33.50
27439;DHT22;14887;51.252;7.470;2023-06-26T03:34:47;20.40;35.90
27439;DHT22;14887;51.252;7.470;2023-06-26T03:37:12;20.40;37.70
27439;DHT22;14887;51.252;7.470;2023-06-26T03:39:38;20.30;49.70
27439;DHT22;14887;51.252;7.470;2023-06-26T03:42:04;20.40;47.70
27439;DHT22;14887;51.252;7.470;2023-06-26T03:44:29;20.30;52.50
27439;DHT22;14887;51.252;7.470;2023-06-26T03:46:55;20.30;56.00
27439;DHT22;14887;51.252;7.470;2023-06-26T03:49:20;20.30;60.70
27439;DHT22;14887;51.252;7.470;2023-06-26T03:51:46;20.20;92.80
27439;DHT22;14887;51.252;7.470;2023-06-26T03:54:11;20.20;99.90
27439;DHT22;14887;51.252;7.470;2023-06-26T03:56:37;20.10;99.90
27439;DHT22;14887;51.252;7.470;2023-06-26T03:59:02;20.10;99.90
27439;DHT22;14887;51.252;7.470;2023-06-26T04:01:28;20.00;99.90
27439;DHT22;14887;51.252;7.470;2023-06-26T04:03:54;20.00;99.90
27439;DHT22;14887;51.252;7.470;2023-06-26T04:06:20;19.90;99.90
27439;DHT22;14887;51.252;7.470;2023-06-26T04:08:45;19.90;99.90
27439;DHT22;14887;51.252;7.470;2023-06-26T04:11:11;19.80;99.90
27439;DHT22;14887;51.252;7.470;2023-06-26T04:13:36;19.90;99.90
27439;DHT22;14887;51.252;7.470;2023-06-26T04:16:02;19.90;99.90
27439;DHT22;14887;51.252;7.470;2023-06-26T04:18:28;19.80;99.90
27439;DHT22;14887;51.252;7.470;2023-06-26T04:21:09;19.80;99.90
27439;DHT22;14887;51.252;7.470;2023-06-26T04:23:35;19.80;1.00
27439;DHT22;14887;51.252;7.470;2023-06-26T04:26:01;19.80;1.00
27439;DHT22;14887;51.252;7.470;2023-06-26T04:28:28;19.80;1.00
27439;DHT22;14887;51.252;7.470;2023-06-26T04:30:54;19.80;1.00
27439;DHT22;14887;51.252;7.470;2023-06-26T04:33:19;19.80;95.20
27439;DHT22;14887;51.252;7.470;2023-06-26T04:35:45;19.80;99.90
27439;DHT22;14887;51.252;7.470;2023-06-26T04:38:14;19.80;99.90
27439;DHT22;14887;51.252;7.470;2023-06-26T04:40:40;19.70;1.00
27439;DHT22;14887;51.252;7.470;2023-06-26T04:43:06;19.70;1.00
27439;DHT22;14887;51.252;7.470;2023-06-26T04:45:31;19.70;1.00
27439;DHT22;14887;51.252;7.470;2023-06-26T04:47:57;19.70;99.90
27439;DHT22;14887;51.252;7.470;2023-06-26T04:50:23;19.60;99.90
27439;DHT22;14887;51.252;7.470;2023-06-26T04:52:48;19.70;1.00
27439;DHT22;14887;51.252;7.470;2023-06-26T04:55:14;19.70;1.00
27439;DHT22;14887;51.252;7.470;2023-06-26T04:57:39;19.60;57.70
27439;DHT22;14887;51.252;7.470;2023-06-26T05:00:05;19.70;1.00
27439;DHT22;14887;51.252;7.470;2023-06-26T05:02:35;19.80;99.90
27439;DHT22;14887;51.252;7.470;2023-06-26T05:05:00;19.80;1.00
27439;DHT22;14887;51.252;7.470;2023-06-26T05:07:26;19.80;1.00
27439;DHT22;14887;51.252;7.470;2023-06-26T05:09:52;19.80;1.00
27439;DHT22;14887;51.252;7.470;2023-06-26T05:12:17;19.80;1.00
27439;DHT22;14887;51.252;7.470;2023-06-26T05:14:43;19.80;1.00
27439;DHT22;14887;51.252;7.470;2023-06-26T05:17:09;19.80;1.00
27439;DHT22;14887;51.252;7.470;2023-06-26T05:19:34;19.70;99.90
27439;DHT22;14887;51.252;7.470;2023-06-26T05:22:01;19.70;99.90
27439;DHT22;14887;51.252;7.470;2023-06-26T05:24:30;19.60;1.00
27439;DHT22;14887;51.252;7.470;2023-06-26T05:26:56;19.60;1.00
27439;DHT22;14887;51.252;7.470;2023-06-26T05:29:22;19.70;1.00
27439;DHT22;14887;51.252;7.470;2023-06-26T05:31:49;19.70;99.90
27439;DHT22;14887;51.252;7.470;2023-06-26T05:34:17;19.80;32.30
27439;DHT22;14887;51.252;7.470;2023-06-26T05:36:44;19.90;91.50
27439;DHT22;14887;51.252;7.470;2023-06-26T05:39:11;19.80;99.90
27439;DHT22;14887;51.252;7.470;2023-06-26T05:41:36;20.00;99.90
27439;DHT22;14887;51.252;7.470;2023-06-26T05:44:02;20.10;99.90
27439;DHT22;14887;51.252;7.470;2023-06-26T05:46:27;20.10;99.90
27439;DHT22;14887;51.252;7.470;2023-06-26T05:48:53;20.10;1.00
27439;DHT22;14887;51.252;7.470;2023-06-26T05:51:19;20.00;1.00
27439;DHT22;14887;51.252;7.470;2023-06-26T05:53:45;19.80;99.90
27439;DHT22;14887;51.252;7.470;2023-06-26T05:56:11;19.90;99.90
27439;DHT22;14887;51.252;7.470;2023-06-26T05:58:36;20.00;99.90
27439;DHT22;14887;51.252;7.470;2023-06-26T06:01:02;20.10;1.00
27439;DHT22;14887;51.252;7.470;2023-06-26T06:03:28;20.30;1.00
27439;DHT22;14887;51.252;7.470;2023-06-26T06:05:53;20.50;99.90
27439;DHT22;14887;51.252;7.470;2023-06-26T06:08:19;21.00;1.00
27439;DHT22;14887;51.252;7.470;2023-06-26T06:10:44;21.70;1.00
27439;DHT22;14887;51.252;7.470;2023-06-26T06:13:10;22.40;99.90
27439;DHT22;14887;51.252;7.470;2023-06-26T06:15:35;23.00;99.90
27439;DHT22;14887;51.252;7.470;2023-06-26T06:18:01;23.00;54.30
27439;DHT22;14887;51.252;7.470;2023-06-26T06:20:26;22.20;99.90
27439;DHT22;14887;51.252;7.470;2023-06-26T06:22:52;21.60;1.00
27439;DHT22;14887;51.252;7.470;2023-06-26T06:25:18;21.20;1.00
27439;DHT22;14887;51.252;7.470;2023-06-26T06:27:44;20.90;99.90
27439;DHT22;14887;51.252;7.470;2023-06-26T06:30:10;21.20;99.90
27439;DHT22;14887;51.252;7.470;2023-06-26T06:32:36;21.90;99.90
27439;DHT22;14887;51.252;7.470;2023-06-26T06:35:02;22.50;1.00
27439;DHT22;14887;51.252;7.470;2023-06-26T06:37:34;22.90;99.90
27439;DHT22;14887;51.252;7.470;2023-06-26T06:39:59;23.30;99.90
27439;DHT22;14887;51.252;7.470;2023-06-26T06:42:25;23.20;43.60
27439;DHT22;14887;51.252;7.470;2023-06-26T06:44:50;22.90;99.90
27439;DHT22;14887;51.252;7.470;2023-06-26T06:47:16;22.30;99.90
27439;DHT22;14887;51.252;7.470;2023-06-26T06:49:41;21.50;99.90
27439;DHT22;14887;51.252;7.470;2023-06-26T06:52:07;21.30;99.90
27439;DHT22;14887;51.252;7.470;2023-06-26T06:54:54;21.90;99.90
27439;DHT22;14887;51.252;7.470;2023-06-26T06:57:21;23.00;1.00
27439;DHT22;14887;51.252;7.470;2023-06-26T06:59:47;23.90;1.00
27439;DHT22;14887;51.252;7.470;2023-06-26T07:02:14;24.80;1.00
27439;DHT22;14887;51.252;7.470;2023-06-26T07:04:40;25.10;1.00
27439;DHT22;14887;51.252;7.470;2023-06-26T07:07:06;25.80;99.90
27439;DHT22;14887;51.252;7.470;2023-06-26T07:09:32;26.30;99.90
27439;DHT22;14887;51.252;7.470;2023-06-26T07:11:57;26.00;99.90
27439;DHT22;14887;51.252;7.470;2023-06-26T07:14:23;25.30;99.90
27439;DHT22;14887;51.252;7.470;2023-06-26T07:16:48;25.40;99.90
27439;DHT22;14887;51.252;7.470;2023-06-26T07:19:14;25.90;99.90
27439;DHT22;14887;51.252;7.470;2023-06-26T07:21:40;25.90;99.90
27439;DHT22;14887;51.252;7.470;2023-06-26T07:24:06;26.50;99.90
27439;DHT22;14887;51.252;7.470;2023-06-26T07:26:32;26.40;99.90
27439;DHT22;14887;51.252;7.470;2023-06-26T07:28:57;26.40;99.90
27439;DHT22;14887;51.252;7.470;2023-06-26T07:31:23;25.30;99.90
27439;DHT22;14887;51.252;7.470;2023-06-26T07:33:48;23.90;1.00
27439;DHT22;14887;51.252;7.470;2023-06-26T07:36:14;22.90;99.90
27439;DHT22;14887;51.252;7.470;2023-06-26T07:38:39;22.40;1.00
27439;DHT22;14887;51.252;7.470;2023-06-26T07:41:05;22.00;99.90
27439;DHT22;14887;51.252;7.470;2023-06-26T07:43:30;22.30;1.00
27439;DHT22;14887;51.252;7.470;2023-06-26T07:45:56;22.90;99.90
27439;DHT22;14887;51.252;7.470;2023-06-26T07:48:24;22.90;1.00
27439;DHT22;14887;51.252;7.470;2023-06-26T07:50:50;23.10;1.00
27439;DHT22;14887;51.252;7.470;2023-06-26T07:53:16;23.70;99.90
27439;DHT22;14887;51.252;7.470;2023-06-26T07:55:42;24.50;99.90
27439;DHT22;14887;51.252;7.470;2023-06-26T07:58:07;24.90;1.00
27439;DHT22;14887;51.252;7.470;2023-06-26T08:00:33;25.40;1.00
27439;DHT22;14887;51.252;7.470;2023-06-26T08:02:59;25.60;99.90
27439;DHT22;14887;51.252;7.470;2023-06-26T08:05:24;26.50;99.90
27439;DHT22;14887;51.252;7.470;2023-06-26T08:07:50;27.10;99.90
27439;DHT22;14887;51.252;7.470;2023-06-26T08:10:16;27.50;99.90
27439;DHT22;14887;51.252;7.470;2023-06-26T08:12:42;27.60;99.90
27439;DHT22;14887;51.252;7.470;2023-06-26T08:15:11;27.80;99.90
27439;DHT22;14887;51.252;7.470;2023-06-26T08:17:37;27.70;99.90
27439;DHT22;14887;51.252;7.470;2023-06-26T08:20:04;27.60;99.90
27439;DHT22;14887;51.252;7.470;2023-06-26T08:22:30;28.10;99.90
27439;DHT22;14887;51.252;7.470;2023-06-26T08:24:56;28.40;99.90
27439;DHT22;14887;51.252;7.470;2023-06-26T08:27:22;28.40;99.90
27439;DHT22;14887;51.252;7.470;2023-06-26T08:29:47;28.50;99.90
27439;DHT22;14887;51.252;7.470;2023-06-26T08:32:13;27.70;99.90
27439;DHT22;14887;51.252;7.470;2023-06-26T08:34:39;27.00;99.90
27439;DHT22;14887;51.252;7.470;2023-06-26T08:37:05;27.10;99.90
27439;DHT22;14887;51.252;7.470;2023-06-26T08:39:30;27.10;99.90
27439;DHT22;14887;51.252;7.470;2023-06-26T08:41:56;26.70;99.90
27439;DHT22;14887;51.252;7.470;2023-06-26T08:44:22;25.90;99.90
27439;DHT22;14887;51.252;7.470;2023-06-26T08:46:50;25.70;99.90
27439;DHT22;14887;51.252;7.470;2023-06-26T08:49:42;25.30;99.90
27439;DHT22;14887;51.252;7.470;2023-06-26T08:52:19;24.60;99.90
27439;DHT22;14887;51.252;7.470;2023-06-26T08:54:52;23.90;1.00
27439;DHT22;14887;51.252;7.470;2023-06-26T08:57:21;23.90;1.00
27439;DHT22;14887;51.252;7.470;2023-06-26T08:59:48;24.00;1.00
27439;DHT22;14887;51.252;7.470;2023-06-26T09:02:14;23.90;1.00
27439;DHT22;14887;51.252;7.470;2023-06-26T09:04:40;23.90;1.00
27439;DHT22;14887;51.252;7.470;2023-06-26T09:07:06;23.90;1.00
27439;DHT22;14887;51.252;7.470;2023-06-26T09:09:32;23.90;1.00
27439;DHT22;14887;51.252;7.470;2023-06-26T09:11:57;25.00;1.00
27439;DHT22;14887;51.252;7.470;2023-06-26T09:14:23;25.40;99.90
27439;DHT22;14887;51.252;7.470;2023-06-26T09:16:51;25.50;99.90
27439;DHT22;14887;51.252;7.470;2023-06-26T09:19:17;26.50;99.90
27439;DHT22;14887;51.252;7.470;2023-06-26T09:21:43;26.70;99.90
27439;DHT22;14887;51.252;7.470;2023-06-26T09:24:09;27.50;99.90
27439;DHT22;14887;51.252;7.470;2023-06-26T09:26:36;27.60;99.90
27439;DHT22;14887;51.252;7.470;2023-06-26T09:29:03;27.70;99.90
27439;DHT22;14887;51.252;7.470;2023-06-26T09:31:29;27.20;99.90
27439;DHT22;14887;51.252;7.470;2023-06-26T09:33:59;26.90;99.90
27439;DHT22;14887;51.252;7.470;2023-06-26T09:36:29;25.80;99.90
27439;DHT22;14887;51.252;7.470;2023-06-26T09:38:59;24.60;99.90
27439;DHT22;14887;51.252;7.470;2023-06-26T09:41:25;23.90;99.90
27439;DHT22;14887;51.252;7.470;2023-06-26T09:43:51;23.50;1.00
27439;DHT22;14887;51.252;7.470;2023-06-26T09:46:23;24.20;1.00
27439;DHT22;14887;51.252;7.470;2023-06-26T09:48:49;24.30;99.90
27439;DHT22;14887;51.252;7.470;2023-06-26T09:51:17;24.50;99.90
27439;DHT22;14887;51.252;7.470;2023-06-26T09:53:43;25.70;99.90
27439;DHT22;14887;51.252;7.470;2023-06-26T09:56:15;27.40;99.90
27439;DHT22;14887;51.252;7.470;2023-06-26T09:58:44;28.90;99.90
27439;DHT22;14887;51.252;7.470;2023-06-26T10:01:10;28.30;99.90
27439;DHT22;14887;51.252;7.470;2023-06-26T10:03:36;26.60;99.90
27439;DHT22;14887;51.252;7.470;2023-06-26T10:06:02;25.40;99.90
27439;DHT22;14887;51.252;7.470;2023-06-26T10:08:30;25.40;99.90
27439;DHT22;14887;51.252;7.470;2023-06-26T10:10:57;25.20;99.90
27439;DHT22;14887;51.252;7.470;2023-06-26T10:13:36;24.60;99.90
27439;DHT22;14887;51.252;7.470;2023-06-26T10:16:02;23.60;99.90
27439;DHT22;14887;51.252;7.470;2023-06-26T10:18:31;22.80;1.00
27439;DHT22;14887;51.252;7.470;2023-06-26T10:20:59;23.20;99.90
27439;DHT22;14887;51.252;7.470;2023-06-26T10:23:27;24.30;99.90
27439;DHT22;14887;51.252;7.470;2023-06-26T10:25:55;25.60;99.90
27439;DHT22;14887;51.252;7.470;2023-06-26T10:28:23;26.90;99.90
27439;DHT22;14887;51.252;7.470;2023-06-26T10:30:52;27.70;99.90
27439;DHT22;14887;51.252;7.470;2023-06-26T10:33:19;27.20;98.00
27439;DHT22;14887;51.252;7.470;2023-06-26T10:35:45;26.70;81.90
27439;DHT22;14887;51.252;7.470;2023-06-26T10:38:11;25.90;94.40
27439;DHT22;14887;51.252;7.470;2023-06-26T10:40:48;25.80;94.10
27439;DHT22;14887;51.252;7.470;2023-06-26T10:43:17;26.20;96.00
27439;DHT22;14887;51.252;7.470;2023-06-26T10:45:48;26.90;82.90
27439;DHT22;14887;51.252;7.470;2023-06-26T10:48:19;27.90;73.20
27439;DHT22;14887;51.252;7.470;2023-06-26T10:50:47;27.30;42.80
27439;DHT22;14887;51.252;7.470;2023-06-26T10:55:50;27.80;36.40
27439;DHT22;14887;51.252;7.470;2023-06-26T11:03:41;28.10;13.60
27439;DHT22;14887;51.252;7.470;2023-06-26T11:11:11;27.10;2.90
27439;DHT22;14887;51.252;7.470;2023-06-26T11:13:37;27.10;7.50
27439;DHT22;14887;51.252;7.470;2023-06-26T11:16:03;27.20;5.60
27439;DHT22;14887;51.252;7.470;2023-06-26T11:18:29;27.70;8.70
27439;DHT22;14887;51.252;7.470;2023-06-26T11:21:05;28.00;3.00
27439;DHT22;14887;51.252;7.470;2023-06-26T11:23:32;28.00;1.00
27439;DHT22;14887;51.252;7.470;2023-06-26T11:26:21;28.50;3.60
27439;DHT22;14887;51.252;7.470;2023-06-26T11:28:48;28.80;1.00
27439;DHT22;14887;51.252;7.470;2023-06-26T11:31:30;29.30;1.00
27439;DHT22;14887;51.252;7.470;2023-06-26T11:33:57;29.50;1.00
27439;DHT22;14887;51.252;7.470;2023-06-26T11:36:24;29.60;1.00
27439;DHT22;14887;51.252;7.470;2023-06-26T11:38:54;29.50;1.00
27439;DHT22;14887;51.252;7.470;2023-06-26T11:41:20;28.90;1.00
27439;DHT22;14887;51.252;7.470;2023-06-26T11:43:45;28.60;1.00
27439;DHT22;14887;51.252;7.470;2023-06-26T11:46:11;28.70;1.00
27439;DHT22;14887;51.252;7.470;2023-06-26T11:48:37;28.80;1.00
27439;DHT22;14887;51.252;7.470;2023-06-26T11:51:06;28.90;1.00
27439;DHT22;14887;51.252;7.470;2023-06-26T11:53:39;29.10;1.00
27439;DHT22;14887;51.252;7.470;2023-06-26T11:56:18;29.20;1.00
27439;DHT22;14887;51.252;7.470;2023-06-26T11:59:01;29.60;1.00
27439;DHT22;14887;51.252;7.470;2023-06-26T12:01:40;29.60;1.00
27439;DHT22;14887;51.252;7.470;2023-06-26T12:04:08;29.50;1.00
27439;DHT22;14887;51.252;7.470;2023-06-26T12:06:36;29.30;1.00
27439;DHT22;14887;51.252;7.470;2023-06-26T12:09:04;28.70;1.00
27439;DHT22;14887;51.252;7.470;2023-06-26T12:11:31;29.00;1.00
27439;DHT22;14887;51.252;7.470;2023-06-26T12:13:58;28.50;1.00
27439;DHT22;14887;51.252;7.470;2023-06-26T12:16:24;27.90;1.00
27439;DHT22;14887;51.252;7.470;2023-06-26T12:18:51;26.60;1.00
27439;DHT22;14887;51.252;7.470;2023-06-26T12:21:33;25.90;1.00
27439;DHT22;14887;51.252;7.470;2023-06-26T12:24:14;25.80;1.00
27439;DHT22;14887;51.252;7.470;2023-06-26T12:26:45;26.30;1.00
27439;DHT22;14887;51.252;7.470;2023-06-26T12:29:15;27.50;1.00
27439;DHT22;14887;51.252;7.470;2023-06-26T12:31:52;27.20;1.00
27439;DHT22;14887;51.252;7.470;2023-06-26T12:34:20;27.10;1.00
27439;DHT22;14887;51.252;7.470;2023-06-26T12:36:50;27.40;1.00
27439;DHT22;14887;51.252;7.470;2023-06-26T12:39:17;28.00;1.00
27439;DHT22;14887;51.252;7.470;2023-06-26T12:41:52;28.30;1.00
27439;DHT22;14887;51.252;7.470;2023-06-26T12:44:29;28.00;1.00
27439;DHT22;14887;51.252;7.470;2023-06-26T12:46:59;27.70;1.00
27439;DHT22;14887;51.252;7.470;2023-06-26T12:49:39;27.20;1.00
27439;DHT22;14887;51.252;7.470;2023-06-26T12:52:07;27.00;1.00
27439;DHT22;14887;51.252;7.470;2023-06-26T12:54:34;25.90;1.00
27439;DHT22;14887;51.252;7.470;2023-06-26T12:57:00;25.70;1.00
27439;DHT22;14887;51.252;7.470;2023-06-26T12:59:26;25.60;1.00
27439;DHT22;14887;51.252;7.470;2023-06-26T13:01:51;25.70;1.00
27439;DHT22;14887;51.252;7.470;2023-06-26T13:04:18;25.80;1.00
27439;DHT22;14887;51.252;7.470;2023-06-26T13:06:44;26.90;1.00
27439;DHT22;14887;51.252;7.470;2023-06-26T13:09:10;26.70;1.00
27439;DHT22;14887;51.252;7.470;2023-06-26T13:11:37;26.60;1.00
27439;DHT22;14887;51.252;7.470;2023-06-26T13:14:03;27.30;1.00
27439;DHT22;14887;51.252;7.470;2023-06-26T13:16:29;28.10;1.00
27439;DHT22;14887;51.252;7.470;2023-06-26T13:18:55;28.90;1.00
27439;DHT22;14887;51.252;7.470;2023-06-26T13:21:21;29.40;1.00
27439;DHT22;14887;51.252;7.470;2023-06-26T13:23:46;29.30;1.00
27439;DHT22;14887;51.252;7.470;2023-06-26T13:26:12;28.80;1.00
27439;DHT22;14887;51.252;7.470;2023-06-26T13:28:38;28.80;1.00
27439;DHT22;14887;51.252;7.470;2023-06-26T13:31:04;29.60;1.00
27439;DHT22;14887;51.252;7.470;2023-06-26T13:33:31;30.10;1.00
27439;DHT22;14887;51.252;7.470;2023-06-26T13:35:56;29.70;1.00
27439;DHT22;14887;51.252;7.470;2023-06-26T13:38:22;28.50;1.00
27439;DHT22;14887;51.252;7.470;2023-06-26T13:40:54;28.20;1.00
27439;DHT22;14887;51.252;7.470;2023-06-26T13:43:22;28.00;1.00
27439;DHT22;14887;51.252;7.470;2023-06-26T13:45:51;27.90;1.00
27439;DHT22;14887;51.252;7.470;2023-06-26T13:48:17;27.80;1.00
27439;DHT22;14887;51.252;7.470;2023-06-26T13:50:42;28.20;1.00
27439;DHT22;14887;51.252;7.470;2023-06-26T13:53:08;28.20;1.00
27439;DHT22;14887;51.252;7.470;2023-06-26T13:55:34;28.00;1.00
27439;DHT22;14887;51.252;7.470;2023-06-26T13:58:00;28.70;1.00
27439;DHT22;14887;51.252;7.470;2023-06-26T14:00:29;28.80;1.00
27439;DHT22;14887;51.252;7.470;2023-06-26T14:02:55;29.40;1.00
27439;DHT22;14887;51.252;7.470;2023-06-26T14:05:21;29.30;1.00
27439;DHT22;14887;51.252;7.470;2023-06-26T14:07:48;29.00;1.00
27439;DHT22;14887;51.252;7.470;2023-06-26T14:10:14;27.80;1.00
27439;DHT22;14887;51.252;7.470;2023-06-26T14:12:40;28.00;1.00
27439;DHT22;14887;51.252;7.470;2023-06-26T14:15:06;27.90;1.00
27439;DHT22;14887;51.252;7.470;2023-06-26T14:17:32;28.10;1.00
27439;DHT22;14887;51.252;7.470;2023-06-26T14:19:58;27.00;1.00
27439;DHT22;14887;51.252;7.470;2023-06-26T14:22:25;26.90;1.00
27439;DHT22;14887;51.252;7.470;2023-06-26T14:24:50;27.70;1.00
27439;DHT22;14887;51.252;7.470;2023-06-26T14:27:16;27.90;1.00
27439;DHT22;14887;51.252;7.470;2023-06-26T14:29:41;28.00;1.00
27439;DHT22;14887;51.252;7.470;2023-06-26T14:32:07;28.10;1.00
27439;DHT22;14887;51.252;7.470;2023-06-26T14:34:33;28.40;1.00
27439;DHT22;14887;51.252;7.470;2023-06-26T14:36:58;27.90;1.00
27439;DHT22;14887;51.252;7.470;2023-06-26T14:39:27;27.00;1.00
27439;DHT22;14887;51.252;7.470;2023-06-26T14:41:52;26.10;1.00
27439;DHT22;14887;51.252;7.470;2023-06-26T14:44:18;25.00;1.00
27439;DHT22;14887;51.252;7.470;2023-06-26T14:46:43;24.70;1.00
27439;DHT22;14887;51.252;7.470;2023-06-26T14:49:09;24.30;1.00
27439;DHT22;14887;51.252;7.470;2023-06-26T14:51:34;24.60;1.00
27439;DHT22;14887;51.252;7.470;2023-06-26T14:54:00;25.80;1.00
27439;DHT22;14887;51.252;7.470;2023-06-26T14:56:26;26.40;1.00
27439;DHT22;14887;51.252;7.470;2023-06-26T14:58:51;26.90;1.00
27439;DHT22;14887;51.252;7.470;2023-06-26T15:01:18;26.40;1.00
27439;DHT22;14887;51.252;7.470;2023-06-26T15:03:45;25.70;1.00
27439;DHT22;14887;51.252;7.470;2023-06-26T15:06:11;24.90;1.00
27439;DHT22;14887;51.252;7.470;2023-06-26T15:08:36;24.40;1.00
27439;DHT22;14887;51.252;7.470;2023-06-26T15:11:02;24.00;1.00
27439;DHT22;14887;51.252;7.470;2023-06-26T15:13:30;24.60;1.00
27439;DHT22;14887;51.252;7.470;2023-06-26T15:15:56;25.50;1.00
27439;DHT22;14887;51.252;7.470;2023-06-26T15:18:21;26.00;1.00
27439;DHT22;14887;51.252;7.470;2023-06-26T15:20:47;26.10;1.00
27439;DHT22;14887;51.252;7.470;2023-06-26T15:23:13;25.50;1.00
27439;DHT22;14887;51.252;7.470;2023-06-26T15:25:38;25.60;1.00
27439;DHT22;14887;51.252;7.470;2023-06-26T15:28:07;25.30;1.00
27439;DHT22;14887;51.252;7.470;2023-06-26T15:30:33;25.00;1.00
27439;DHT22;14887;51.252;7.470;2023-06-26T15:32:59;24.70;1.00
27439;DHT22;14887;51.252;7.470;2023-06-26T15:35:24;24.10;1.00
27439;DHT22;14887;51.252;7.470;2023-06-26T15:37:50;23.60;1.00
27439;DHT22;14887;51.252;7.470;2023-06-26T15:40:16;23.30;1.00
27439;DHT22;14887;51.252;7.470;2023-06-26T15:42:48;23.20;1.00
27439;DHT22;14887;51.252;7.470;2023-06-26T15:45:15;23.00;1.00
27439;DHT22;14887;51.252;7.470;2023-06-26T15:47:43;22.80;1.00
27439;DHT22;14887;51.252;7.470;2023-06-26T15:50:08;22.50;1.00
27439;DHT22;14887;51.252;7.470;2023-06-26T15:52:34;22.40;1.00
27439;DHT22;14887;51.252;7.470;2023-06-26T15:55:00;22.40;1.00
27439;DHT22;14887;51.252;7.470;2023-06-26T15:57:25;22.20;1.00
27439;DHT22;14887;51.252;7.470;2023-06-26T15:59:51;22.30;1.00